sensor_id;sensor_type;location;lat;lon;timestamp;P1;durP1;ratioP1;P2;durP2;ratioP2
25988;SDS011;13778;48.236;9.894;2023-03-01T00:00:47;27.92;;;16.00;;
25988;SDS011;13778;48.236;9.894;2023-03-01T00:03:37;26.08;;;15.57;;
25988;SDS011;13778;48.236;9.894;2023-03-01T00:06:28;28.35;;;17.58;;
25988;SDS011;13778;48.236;9.894;2023-03-01T00:09:19;27.88;;;16.15;;
25988;SDS011;13778;48.236;9.894;2023-03-01T00:15:00;29.95;;;17.10;;
25988;SDS011;13778;48.236;9.894;2023-03-01T00:17:50;29.15;;;16.83;;
25988;SDS011;13778;48.236;9.894;2023-03-01T00:20:41;28.90;;;18.15;;
25988;SDS011;13778;48.236;9.894;2023-03-01T00:23:33;32.53;;;16.98;;
25988;SDS011;13778;48.236;9.894;2023-03-01T00:26:25;28.92;;;17.70;;
25988;SDS011;13778;48.236;9.894;2023-03-01T00:29:15;34.40;;;18.98;;
25988;SDS011;13778;48.236;9.894;2023-03-01T00:32:06;27.55;;;17.50;;
25988;SDS011;13778;48.236;9.894;2023-03-01T00:34:56;30.20;;;17.08;;
25988;SDS011;13778;48.236;9.894;2023-03-01T00:37:47;28.20;;;17.80;;
25988;SDS011;13778;48.236;9.894;2023-03-01T00:40:37;33.72;;;18.08;;
25988;SDS011;13778;48.236;9.894;2023-03-01T00:43:29;29.38;;;17.63;;
25988;SDS011;13778;48.236;9.894;2023-03-01T00:46:21;33.40;;;18.50;;
25988;SDS011;13778;48.236;9.894;2023-03-01T00:52:01;30.08;;;17.63;;
25988;SDS011;13778;48.236;9.894;2023-03-01T00:54:52;29.02;;;17.58;;
25988;SDS011;13778;48.236;9.894;2023-03-01T00:57:42;29.98;;;17.85;;
25988;SDS011;13778;48.236;9.894;2023-03-01T01:00:34;29.73;;;18.58;;
25988;SDS011;13778;48.236;9.894;2023-03-01T01:06:16;32.83;;;17.52;;
25988;SDS011;13778;48.236;9.894;2023-03-01T01:09:06;28.88;;;17.73;;
25988;SDS011;13778;48.236;9.894;2023-03-01T01:11:57;34.13;;;19.13;;
25988;SDS011;13778;48.236;9.894;2023-03-01T01:14:47;30.25;;;17.60;;
25988;SDS011;13778;48.236;9.894;2023-03-01T01:17:39;32.05;;;18.98;;
25988;SDS011;13778;48.236;9.894;2023-03-01T01:23:19;31.88;;;17.92;;
25988;SDS011;13778;48.236;9.894;2023-03-01T01:26:11;31.70;;;17.98;;
25988;SDS011;13778;48.236;9.894;2023-03-01T01:29:02;30.23;;;19.08;;
25988;SDS011;13778;48.236;9.894;2023-03-01T01:31:53;33.50;;;19.45;;
25988;SDS011;13778;48.236;9.894;2023-03-01T01:34:45;31.40;;;17.75;;
25988;SDS011;13778;48.236;9.894;2023-03-01T01:37:35;32.00;;;19.33;;
25988;SDS011;13778;48.236;9.894;2023-03-01T01:40:26;34.95;;;20.95;;
25988;SDS011;13778;48.236;9.894;2023-03-01T01:43:18;32.40;;;19.52;;
25988;SDS011;13778;48.236;9.894;2023-03-01T01:46:12;36.22;;;20.92;;
25988;SDS011;13778;48.236;9.894;2023-03-01T01:49:09;38.53;;;20.55;;
25988;SDS011;13778;48.236;9.894;2023-03-01T01:52:07;33.97;;;18.90;;
25988;SDS011;13778;48.236;9.894;2023-03-01T01:55:00;33.03;;;21.05;;
25988;SDS011;13778;48.236;9.894;2023-03-01T01:57:51;34.72;;;20.70;;
25988;SDS011;13778;48.236;9.894;2023-03-01T02:00:43;37.72;;;20.67;;
25988;SDS011;13778;48.236;9.894;2023-03-01T02:03:34;35.88;;;21.45;;
25988;SDS011;13778;48.236;9.894;2023-03-01T02:06:27;35.10;;;18.80;;
25988;SDS011;13778;48.236;9.894;2023-03-01T02:09:20;35.55;;;18.83;;
25988;SDS011;13778;48.236;9.894;2023-03-01T02:12:12;35.17;;;20.02;;
25988;SDS011;13778;48.236;9.894;2023-03-01T02:15:03;32.25;;;18.83;;
25988;SDS011;13778;48.236;9.894;2023-03-01T02:17:54;36.08;;;20.60;;
25988;SDS011;13778;48.236;9.894;2023-03-01T02:20:48;39.90;;;19.88;;
25988;SDS011;13778;48.236;9.894;2023-03-01T02:23:41;33.08;;;18.88;;
25988;SDS011;13778;48.236;9.894;2023-03-01T02:26:33;35.42;;;21.67;;
25988;SDS011;13778;48.236;9.894;2023-03-01T02:29:27;37.90;;;20.85;;
25988;SDS011;13778;48.236;9.894;2023-03-01T02:32:18;31.08;;;20.38;;
25988;SDS011;13778;48.236;9.894;2023-03-01T02:35:14;37.97;;;20.65;;
25988;SDS011;13778;48.236;9.894;2023-03-01T02:38:06;34.05;;;19.95;;
25988;SDS011;13778;48.236;9.894;2023-03-01T02:40:56;34.08;;;20.58;;
25988;SDS011;13778;48.236;9.894;2023-03-01T02:43:47;38.30;;;20.95;;
25988;SDS011;13778;48.236;9.894;2023-03-01T02:46:43;35.30;;;20.33;;
25988;SDS011;13778;48.236;9.894;2023-03-01T02:49:34;37.22;;;21.15;;
25988;SDS011;13778;48.236;9.894;2023-03-01T02:52:30;36.67;;;20.50;;
25988;SDS011;13778;48.236;9.894;2023-03-01T02:55:24;34.63;;;21.15;;
25988;SDS011;13778;48.236;9.894;2023-03-01T02:58:14;37.00;;;22.00;;
25988;SDS011;13778;48.236;9.894;2023-03-01T03:01:05;36.35;;;20.50;;
25988;SDS011;13778;48.236;9.894;2023-03-01T03:03:57;36.67;;;22.85;;
25988;SDS011;13778;48.236;9.894;2023-03-01T03:06:48;36.38;;;21.77;;
25988;SDS011;13778;48.236;9.894;2023-03-01T03:09:38;35.67;;;21.10;;
25988;SDS011;13778;48.236;9.894;2023-03-01T03:12:29;34.42;;;20.90;;
25988;SDS011;13778;48.236;9.894;2023-03-01T03:15:20;44.97;;;22.17;;
25988;SDS011;13778;48.236;9.894;2023-03-01T03:18:13;36.80;;;21.50;;
25988;SDS011;13778;48.236;9.894;2023-03-01T03:21:08;37.10;;;20.00;;
25988;SDS011;13778;48.236;9.894;2023-03-01T03:23:59;35.58;;;21.30;;
25988;SDS011;13778;48.236;9.894;2023-03-01T03:26:49;38.47;;;22.65;;
25988;SDS011;13778;48.236;9.894;2023-03-01T03:29:40;41.38;;;22.48;;
25988;SDS011;13778;48.236;9.894;2023-03-01T03:32:30;39.25;;;23.13;;
25988;SDS011;13778;48.236;9.894;2023-03-01T03:35:21;34.75;;;21.42;;
25988;SDS011;13778;48.236;9.894;2023-03-01T03:38:15;34.20;;;20.10;;
25988;SDS011;13778;48.236;9.894;2023-03-01T03:41:06;35.83;;;21.33;;
25988;SDS011;13778;48.236;9.894;2023-03-01T03:43:57;34.97;;;21.98;;
25988;SDS011;13778;48.236;9.894;2023-03-01T03:46:47;35.72;;;22.52;;
25988;SDS011;13778;48.236;9.894;2023-03-01T03:49:38;35.80;;;21.85;;
25988;SDS011;13778;48.236;9.894;2023-03-01T03:52:28;36.88;;;22.67;;
25988;SDS011;13778;48.236;9.894;2023-03-01T03:55:20;41.75;;;23.13;;
25988;SDS011;13778;48.236;9.894;2023-03-01T03:58:11;40.08;;;21.85;;
25988;SDS011;13778;48.236;9.894;2023-03-01T04:01:01;40.03;;;21.35;;
25988;SDS011;13778;48.236;9.894;2023-03-01T04:03:52;39.30;;;21.17;;
25988;SDS011;13778;48.236;9.894;2023-03-01T04:06:43;33.95;;;19.83;;
25988;SDS011;13778;48.236;9.894;2023-03-01T04:09:33;36.78;;;21.85;;
25988;SDS011;13778;48.236;9.894;2023-03-01T04:12:25;41.67;;;21.85;;
25988;SDS011;13778;48.236;9.894;2023-03-01T04:15:16;37.83;;;20.48;;
25988;SDS011;13778;48.236;9.894;2023-03-01T04:18:06;39.78;;;21.63;;
25988;SDS011;13778;48.236;9.894;2023-03-01T04:20:57;39.25;;;21.45;;
25988;SDS011;13778;48.236;9.894;2023-03-01T04:23:47;36.90;;;21.58;;
25988;SDS011;13778;48.236;9.894;2023-03-01T04:26:41;38.78;;;21.13;;
25988;SDS011;13778;48.236;9.894;2023-03-01T04:29:33;33.35;;;19.88;;
25988;SDS011;13778;48.236;9.894;2023-03-01T04:35:14;32.60;;;19.88;;
25988;SDS011;13778;48.236;9.894;2023-03-01T04:38:04;36.58;;;21.48;;
25988;SDS011;13778;48.236;9.894;2023-03-01T04:40:55;37.72;;;22.48;;
25988;SDS011;13778;48.236;9.894;2023-03-01T04:43:45;33.80;;;20.98;;
25988;SDS011;13778;48.236;9.894;2023-03-01T04:46:37;37.15;;;20.55;;
25988;SDS011;13778;48.236;9.894;2023-03-01T04:49:28;33.55;;;21.23;;
25988;SDS011;13778;48.236;9.894;2023-03-01T04:52:18;35.47;;;22.15;;
25988;SDS011;13778;48.236;9.894;2023-03-01T04:55:09;38.38;;;22.52;;
25988;SDS011;13778;48.236;9.894;2023-03-01T04:58:00;36.42;;;22.02;;
25988;SDS011;13778;48.236;9.894;2023-03-01T05:00:51;34.15;;;20.65;;
25988;SDS011;13778;48.236;9.894;2023-03-01T05:03:43;34.65;;;21.20;;
25988;SDS011;13778;48.236;9.894;2023-03-01T05:06:34;36.80;;;20.77;;
25988;SDS011;13778;48.236;9.894;2023-03-01T05:09:24;42.33;;;21.65;;
25988;SDS011;13778;48.236;9.894;2023-03-01T05:12:14;36.03;;;22.08;;
25988;SDS011;13778;48.236;9.894;2023-03-01T05:15:05;34.72;;;20.33;;
25988;SDS011;13778;48.236;9.894;2023-03-01T05:17:57;36.10;;;21.40;;
25988;SDS011;13778;48.236;9.894;2023-03-01T05:20:49;39.92;;;20.40;;
25988;SDS011;13778;48.236;9.894;2023-03-01T05:23:40;37.15;;;21.80;;
25988;SDS011;13778;48.236;9.894;2023-03-01T05:26:31;34.85;;;20.73;;
25988;SDS011;13778;48.236;9.894;2023-03-01T05:29:21;35.40;;;21.70;;
25988;SDS011;13778;48.236;9.894;2023-03-01T05:32:14;38.08;;;21.05;;
25988;SDS011;13778;48.236;9.894;2023-03-01T05:35:05;36.70;;;22.30;;
25988;SDS011;13778;48.236;9.894;2023-03-01T05:37:56;35.63;;;21.53;;
25988;SDS011;13778;48.236;9.894;2023-03-01T05:43:37;35.28;;;20.48;;
25988;SDS011;13778;48.236;9.894;2023-03-01T05:46:31;36.80;;;20.65;;
25988;SDS011;13778;48.236;9.894;2023-03-01T05:49:21;33.85;;;20.98;;
25988;SDS011;13778;48.236;9.894;2023-03-01T05:55:05;35.83;;;22.40;;
25988;SDS011;13778;48.236;9.894;2023-03-01T05:57:57;37.47;;;20.63;;
25988;SDS011;13778;48.236;9.894;2023-03-01T06:00:49;36.47;;;21.58;;
25988;SDS011;13778;48.236;9.894;2023-03-01T06:03:39;34.80;;;22.00;;
25988;SDS011;13778;48.236;9.894;2023-03-01T06:06:30;34.95;;;21.77;;
25988;SDS011;13778;48.236;9.894;2023-03-01T06:09:23;38.30;;;22.08;;
25988;SDS011;13778;48.236;9.894;2023-03-01T06:15:07;40.15;;;23.02;;
25988;SDS011;13778;48.236;9.894;2023-03-01T06:17:58;43.70;;;23.50;;
25988;SDS011;13778;48.236;9.894;2023-03-01T06:20:52;41.92;;;23.00;;
25988;SDS011;13778;48.236;9.894;2023-03-01T06:23:43;39.13;;;22.17;;
25988;SDS011;13778;48.236;9.894;2023-03-01T06:26:33;37.88;;;22.40;;
25988;SDS011;13778;48.236;9.894;2023-03-01T06:29:24;37.72;;;22.13;;
25988;SDS011;13778;48.236;9.894;2023-03-01T06:32:15;36.60;;;20.95;;
25988;SDS011;13778;48.236;9.894;2023-03-01T06:35:06;44.85;;;22.30;;
25988;SDS011;13778;48.236;9.894;2023-03-01T06:37:57;36.63;;;21.23;;
25988;SDS011;13778;48.236;9.894;2023-03-01T06:40:51;41.85;;;23.30;;
25988;SDS011;13778;48.236;9.894;2023-03-01T06:43:41;38.65;;;23.15;;
25988;SDS011;13778;48.236;9.894;2023-03-01T06:46:32;32.00;;;20.00;;
25988;SDS011;13778;48.236;9.894;2023-03-01T06:49:24;38.55;;;22.05;;
25988;SDS011;13778;48.236;9.894;2023-03-01T06:55:04;37.30;;;21.38;;
25988;SDS011;13778;48.236;9.894;2023-03-01T06:57:55;38.28;;;20.98;;
25988;SDS011;13778;48.236;9.894;2023-03-01T07:00:46;39.95;;;22.33;;
25988;SDS011;13778;48.236;9.894;2023-03-01T07:03:37;41.80;;;23.65;;
25988;SDS011;13778;48.236;9.894;2023-03-01T07:06:28;33.85;;;20.02;;
25988;SDS011;13778;48.236;9.894;2023-03-01T07:09:19;40.17;;;22.98;;
25988;SDS011;13778;48.236;9.894;2023-03-01T07:12:11;37.92;;;22.38;;
25988;SDS011;13778;48.236;9.894;2023-03-01T07:15:01;36.90;;;19.45;;
25988;SDS011;13778;48.236;9.894;2023-03-01T07:17:52;41.85;;;23.10;;
25988;SDS011;13778;48.236;9.894;2023-03-01T07:20:42;36.38;;;23.10;;
25988;SDS011;13778;48.236;9.894;2023-03-01T07:23:34;36.63;;;22.33;;
25988;SDS011;13778;48.236;9.894;2023-03-01T07:29:14;42.08;;;22.63;;
25988;SDS011;13778;48.236;9.894;2023-03-01T07:32:05;33.78;;;20.85;;
25988;SDS011;13778;48.236;9.894;2023-03-01T07:34:56;37.38;;;22.35;;
25988;SDS011;13778;48.236;9.894;2023-03-01T07:37:46;40.88;;;22.77;;
25988;SDS011;13778;48.236;9.894;2023-03-01T07:40:38;39.53;;;22.38;;
25988;SDS011;13778;48.236;9.894;2023-03-01T07:43:29;38.65;;;22.92;;
25988;SDS011;13778;48.236;9.894;2023-03-01T07:46:20;44.10;;;23.75;;
25988;SDS011;13778;48.236;9.894;2023-03-01T07:49:10;38.85;;;18.73;;
25988;SDS011;13778;48.236;9.894;2023-03-01T07:52:00;34.28;;;22.13;;
25988;SDS011;13778;48.236;9.894;2023-03-01T07:54:51;38.65;;;22.88;;
25988;SDS011;13778;48.236;9.894;2023-03-01T07:57:43;38.58;;;22.58;;
25988;SDS011;13778;48.236;9.894;2023-03-01T08:00:33;35.10;;;21.75;;
25988;SDS011;13778;48.236;9.894;2023-03-01T08:03:24;40.10;;;22.73;;
25988;SDS011;13778;48.236;9.894;2023-03-01T08:06:15;41.75;;;23.80;;
25988;SDS011;13778;48.236;9.894;2023-03-01T08:09:06;41.67;;;24.33;;
25988;SDS011;13778;48.236;9.894;2023-03-01T08:11:57;34.90;;;20.73;;
25988;SDS011;13778;48.236;9.894;2023-03-01T08:14:50;41.65;;;22.33;;
25988;SDS011;13778;48.236;9.894;2023-03-01T08:17:40;39.38;;;22.52;;
25988;SDS011;13778;48.236;9.894;2023-03-01T08:20:30;49.72;;;23.33;;
25988;SDS011;13778;48.236;9.894;2023-03-01T08:23:20;44.15;;;24.33;;
25988;SDS011;13778;48.236;9.894;2023-03-01T08:26:12;40.97;;;23.42;;
25988;SDS011;13778;48.236;9.894;2023-03-01T08:29:03;36.20;;;22.27;;
25988;SDS011;13778;48.236;9.894;2023-03-01T08:31:55;38.47;;;22.55;;
25988;SDS011;13778;48.236;9.894;2023-03-01T08:34:46;43.97;;;25.15;;
25988;SDS011;13778;48.236;9.894;2023-03-01T08:37:36;38.55;;;22.58;;
25988;SDS011;13778;48.236;9.894;2023-03-01T08:40:26;43.65;;;24.33;;
25988;SDS011;13778;48.236;9.894;2023-03-01T08:43:17;38.22;;;21.80;;
25988;SDS011;13778;48.236;9.894;2023-03-01T08:46:07;40.28;;;24.58;;
25988;SDS011;13778;48.236;9.894;2023-03-01T08:48:59;40.50;;;23.48;;
25988;SDS011;13778;48.236;9.894;2023-03-01T08:51:50;37.72;;;23.13;;
25988;SDS011;13778;48.236;9.894;2023-03-01T08:54:40;40.50;;;23.50;;
25988;SDS011;13778;48.236;9.894;2023-03-01T08:57:31;49.08;;;25.40;;
25988;SDS011;13778;48.236;9.894;2023-03-01T09:00:21;43.10;;;25.67;;
25988;SDS011;13778;48.236;9.894;2023-03-01T09:03:12;41.72;;;23.30;;
25988;SDS011;13778;48.236;9.894;2023-03-01T09:06:05;38.42;;;23.80;;
25988;SDS011;13778;48.236;9.894;2023-03-01T09:08:56;39.75;;;20.90;;
25988;SDS011;13778;48.236;9.894;2023-03-01T09:11:47;41.10;;;24.25;;
25988;SDS011;13778;48.236;9.894;2023-03-01T09:14:39;47.10;;;25.58;;
25988;SDS011;13778;48.236;9.894;2023-03-01T09:17:30;38.80;;;22.95;;
25988;SDS011;13778;48.236;9.894;2023-03-01T09:20:20;41.63;;;24.63;;
25988;SDS011;13778;48.236;9.894;2023-03-01T09:23:12;41.90;;;24.23;;
25988;SDS011;13778;48.236;9.894;2023-03-01T09:28:54;40.97;;;23.50;;
25988;SDS011;13778;48.236;9.894;2023-03-01T09:31:45;41.97;;;23.58;;
25988;SDS011;13778;48.236;9.894;2023-03-01T09:34:35;41.35;;;21.42;;
25988;SDS011;13778;48.236;9.894;2023-03-01T09:37:47;37.42;;;21.58;;
25988;SDS011;13778;48.236;9.894;2023-03-01T09:40:43;43.63;;;25.50;;
25988;SDS011;13778;48.236;9.894;2023-03-01T09:43:36;45.65;;;24.15;;
25988;SDS011;13778;48.236;9.894;2023-03-01T09:46:28;41.53;;;23.17;;
25988;SDS011;13778;48.236;9.894;2023-03-01T09:49:19;43.05;;;23.42;;
25988;SDS011;13778;48.236;9.894;2023-03-01T09:55:01;41.60;;;22.77;;
25988;SDS011;13778;48.236;9.894;2023-03-01T09:57:53;47.10;;;24.42;;
25988;SDS011;13778;48.236;9.894;2023-03-01T10:00:46;43.83;;;24.27;;
25988;SDS011;13778;48.236;9.894;2023-03-01T10:03:39;47.38;;;23.48;;
25988;SDS011;13778;48.236;9.894;2023-03-01T10:06:31;47.30;;;25.75;;
25988;SDS011;13778;48.236;9.894;2023-03-01T10:09:22;46.63;;;25.48;;
25988;SDS011;13778;48.236;9.894;2023-03-01T10:12:13;48.78;;;25.30;;
25988;SDS011;13778;48.236;9.894;2023-03-01T10:15:07;54.58;;;28.20;;
25988;SDS011;13778;48.236;9.894;2023-03-01T10:18:02;42.75;;;24.35;;
25988;SDS011;13778;48.236;9.894;2023-03-01T10:20:57;50.28;;;27.15;;
25988;SDS011;13778;48.236;9.894;2023-03-01T10:23:49;42.47;;;23.08;;
25988;SDS011;13778;48.236;9.894;2023-03-01T10:26:44;55.83;;;28.20;;
25988;SDS011;13778;48.236;9.894;2023-03-01T10:29:37;47.75;;;27.30;;
25988;SDS011;13778;48.236;9.894;2023-03-01T10:32:30;45.35;;;25.35;;
25988;SDS011;13778;48.236;9.894;2023-03-01T10:35:22;43.50;;;21.17;;
25988;SDS011;13778;48.236;9.894;2023-03-01T10:38:12;43.70;;;24.52;;
25988;SDS011;13778;48.236;9.894;2023-03-01T10:41:04;42.55;;;24.58;;
25988;SDS011;13778;48.236;9.894;2023-03-01T10:46:45;38.22;;;20.42;;
25988;SDS011;13778;48.236;9.894;2023-03-01T10:49:54;47.80;;;25.60;;
25988;SDS011;13778;48.236;9.894;2023-03-01T10:52:55;46.72;;;23.90;;
25988;SDS011;13778;48.236;9.894;2023-03-01T10:55:45;46.35;;;26.25;;
25988;SDS011;13778;48.236;9.894;2023-03-01T10:58:36;40.30;;;25.23;;
25988;SDS011;13778;48.236;9.894;2023-03-01T11:01:28;44.67;;;24.95;;
25988;SDS011;13778;48.236;9.894;2023-03-01T11:04:20;42.65;;;24.75;;
25988;SDS011;13778;48.236;9.894;2023-03-01T11:07:12;40.70;;;24.30;;
25988;SDS011;13778;48.236;9.894;2023-03-01T11:12:53;45.45;;;24.88;;
25988;SDS011;13778;48.236;9.894;2023-03-01T11:15:44;43.20;;;25.57;;
25988;SDS011;13778;48.236;9.894;2023-03-01T11:18:55;43.08;;;26.60;;
25988;SDS011;13778;48.236;9.894;2023-03-01T11:21:56;40.90;;;24.08;;
25988;SDS011;13778;48.236;9.894;2023-03-01T11:24:49;41.08;;;23.48;;
25988;SDS011;13778;48.236;9.894;2023-03-01T11:27:40;43.70;;;25.25;;
25988;SDS011;13778;48.236;9.894;2023-03-01T11:30:34;50.03;;;26.42;;
25988;SDS011;13778;48.236;9.894;2023-03-01T11:33:29;43.75;;;25.38;;
25988;SDS011;13778;48.236;9.894;2023-03-01T11:36:25;42.55;;;24.05;;
25988;SDS011;13778;48.236;9.894;2023-03-01T11:39:18;46.67;;;26.83;;
25988;SDS011;13778;48.236;9.894;2023-03-01T11:42:12;42.33;;;27.00;;
25988;SDS011;13778;48.236;9.894;2023-03-01T11:45:06;43.92;;;25.83;;
25988;SDS011;13778;48.236;9.894;2023-03-01T11:48:01;42.47;;;25.55;;
25988;SDS011;13778;48.236;9.894;2023-03-01T11:50:56;41.85;;;24.80;;
25988;SDS011;13778;48.236;9.894;2023-03-01T11:53:50;43.72;;;24.55;;
25988;SDS011;13778;48.236;9.894;2023-03-01T11:56:45;43.28;;;25.52;;
25988;SDS011;13778;48.236;9.894;2023-03-01T11:59:52;43.05;;;25.73;;
25988;SDS011;13778;48.236;9.894;2023-03-01T12:02:59;43.45;;;25.67;;
25988;SDS011;13778;48.236;9.894;2023-03-01T12:09:09;44.03;;;25.63;;
25988;SDS011;13778;48.236;9.894;2023-03-01T12:12:25;46.85;;;24.23;;
25988;SDS011;13778;48.236;9.894;2023-03-01T12:15:31;40.40;;;24.13;;
25988;SDS011;13778;48.236;9.894;2023-03-01T12:18:30;45.10;;;25.33;;
25988;SDS011;13778;48.236;9.894;2023-03-01T12:21:29;38.85;;;25.17;;
25988;SDS011;13778;48.236;9.894;2023-03-01T12:27:37;38.53;;;23.02;;
25988;SDS011;13778;48.236;9.894;2023-03-01T12:30:35;46.30;;;26.42;;
25988;SDS011;13778;48.236;9.894;2023-03-01T12:33:31;67.80;;;33.65;;
25988;SDS011;13778;48.236;9.894;2023-03-01T12:39:38;46.60;;;24.17;;
25988;SDS011;13778;48.236;9.894;2023-03-01T12:42:35;44.95;;;24.45;;
25988;SDS011;13778;48.236;9.894;2023-03-01T12:45:42;37.97;;;24.60;;
25988;SDS011;13778;48.236;9.894;2023-03-01T12:48:37;39.80;;;24.50;;
25988;SDS011;13778;48.236;9.894;2023-03-01T12:51:31;41.45;;;26.58;;
25988;SDS011;13778;48.236;9.894;2023-03-01T12:54:25;44.55;;;26.00;;
25988;SDS011;13778;48.236;9.894;2023-03-01T12:57:17;43.22;;;26.02;;
25988;SDS011;13778;48.236;9.894;2023-03-01T13:00:12;44.88;;;26.45;;
25988;SDS011;13778;48.236;9.894;2023-03-01T13:03:09;42.33;;;26.33;;
25988;SDS011;13778;48.236;9.894;2023-03-01T13:06:06;37.72;;;24.13;;
25988;SDS011;13778;48.236;9.894;2023-03-01T13:08:58;52.85;;;29.85;;
25988;SDS011;13778;48.236;9.894;2023-03-01T13:14:44;41.75;;;25.35;;
25988;SDS011;13778;48.236;9.894;2023-03-01T13:17:40;41.00;;;26.83;;
25988;SDS011;13778;48.236;9.894;2023-03-01T13:20:34;44.65;;;24.90;;
25988;SDS011;13778;48.236;9.894;2023-03-01T13:23:35;38.72;;;24.55;;
25988;SDS011;13778;48.236;9.894;2023-03-01T13:26:26;41.13;;;26.15;;
25988;SDS011;13778;48.236;9.894;2023-03-01T13:29:25;47.70;;;25.60;;
25988;SDS011;13778;48.236;9.894;2023-03-01T13:32:19;36.58;;;24.50;;
25988;SDS011;13778;48.236;9.894;2023-03-01T13:38:39;39.53;;;23.75;;
25988;SDS011;13778;48.236;9.894;2023-03-01T13:41:48;42.67;;;25.30;;
25988;SDS011;13778;48.236;9.894;2023-03-01T13:44:39;44.63;;;26.48;;
25988;SDS011;13778;48.236;9.894;2023-03-01T13:47:33;36.08;;;23.75;;
25988;SDS011;13778;48.236;9.894;2023-03-01T13:50:24;39.60;;;24.65;;
25988;SDS011;13778;48.236;9.894;2023-03-01T13:53:16;40.40;;;23.73;;
25988;SDS011;13778;48.236;9.894;2023-03-01T13:58:59;37.78;;;23.83;;
25988;SDS011;13778;48.236;9.894;2023-03-01T14:01:51;39.22;;;25.20;;
25988;SDS011;13778;48.236;9.894;2023-03-01T14:04:42;41.20;;;25.70;;
25988;SDS011;13778;48.236;9.894;2023-03-01T14:07:33;37.60;;;25.27;;
25988;SDS011;13778;48.236;9.894;2023-03-01T14:10:26;44.50;;;26.85;;
25988;SDS011;13778;48.236;9.894;2023-03-01T14:13:25;43.50;;;28.25;;
25988;SDS011;13778;48.236;9.894;2023-03-01T14:16:22;39.72;;;25.13;;
25988;SDS011;13778;48.236;9.894;2023-03-01T14:19:15;42.70;;;25.70;;
25988;SDS011;13778;48.236;9.894;2023-03-01T14:22:12;39.50;;;24.23;;
25988;SDS011;13778;48.236;9.894;2023-03-01T14:25:16;39.88;;;25.50;;
25988;SDS011;13778;48.236;9.894;2023-03-01T14:28:13;37.83;;;23.60;;
25988;SDS011;13778;48.236;9.894;2023-03-01T14:34:16;36.55;;;23.92;;
25988;SDS011;13778;48.236;9.894;2023-03-01T14:37:10;36.40;;;23.42;;
25988;SDS011;13778;48.236;9.894;2023-03-01T14:40:02;43.17;;;24.60;;
25988;SDS011;13778;48.236;9.894;2023-03-01T14:42:53;41.28;;;23.00;;
25988;SDS011;13778;48.236;9.894;2023-03-01T14:45:46;39.95;;;24.60;;
25988;SDS011;13778;48.236;9.894;2023-03-01T14:48:37;39.50;;;24.27;;
25988;SDS011;13778;48.236;9.894;2023-03-01T14:51:29;42.88;;;23.77;;
25988;SDS011;13778;48.236;9.894;2023-03-01T14:54:20;37.42;;;22.60;;
25988;SDS011;13778;48.236;9.894;2023-03-01T14:57:13;34.33;;;21.27;;
25988;SDS011;13778;48.236;9.894;2023-03-01T15:00:05;37.53;;;23.88;;
25988;SDS011;13778;48.236;9.894;2023-03-01T15:02:58;40.92;;;23.70;;
25988;SDS011;13778;48.236;9.894;2023-03-01T15:05:50;36.28;;;23.20;;
25988;SDS011;13778;48.236;9.894;2023-03-01T15:08:44;35.63;;;24.88;;
25988;SDS011;13778;48.236;9.894;2023-03-01T15:11:36;39.10;;;22.35;;
25988;SDS011;13778;48.236;9.894;2023-03-01T15:14:39;32.83;;;21.92;;
25988;SDS011;13778;48.236;9.894;2023-03-01T15:17:30;34.05;;;20.38;;
25988;SDS011;13778;48.236;9.894;2023-03-01T15:20:22;37.17;;;23.75;;
25988;SDS011;13778;48.236;9.894;2023-03-01T15:23:19;42.88;;;25.02;;
25988;SDS011;13778;48.236;9.894;2023-03-01T15:26:21;33.45;;;22.70;;
25988;SDS011;13778;48.236;9.894;2023-03-01T15:29:15;39.63;;;23.70;;
25988;SDS011;13778;48.236;9.894;2023-03-01T15:32:25;34.72;;;23.23;;
25988;SDS011;13778;48.236;9.894;2023-03-01T15:35:39;32.78;;;21.92;;
25988;SDS011;13778;48.236;9.894;2023-03-01T15:38:31;32.90;;;21.70;;
25988;SDS011;13778;48.236;9.894;2023-03-01T15:41:24;38.17;;;22.00;;
25988;SDS011;13778;48.236;9.894;2023-03-01T15:44:15;32.92;;;21.92;;
25988;SDS011;13778;48.236;9.894;2023-03-01T15:47:08;32.25;;;22.05;;
25988;SDS011;13778;48.236;9.894;2023-03-01T15:50:15;35.17;;;21.33;;
25988;SDS011;13778;48.236;9.894;2023-03-01T15:53:07;35.90;;;22.00;;
25988;SDS011;13778;48.236;9.894;2023-03-01T15:55:57;32.83;;;21.13;;
25988;SDS011;13778;48.236;9.894;2023-03-01T15:58:49;32.95;;;20.88;;
25988;SDS011;13778;48.236;9.894;2023-03-01T16:01:40;33.50;;;22.15;;
25988;SDS011;13778;48.236;9.894;2023-03-01T16:04:30;30.88;;;21.38;;
25988;SDS011;13778;48.236;9.894;2023-03-01T16:07:20;38.05;;;22.50;;
25988;SDS011;13778;48.236;9.894;2023-03-01T16:10:11;34.40;;;22.42;;
25988;SDS011;13778;48.236;9.894;2023-03-01T16:13:02;30.13;;;20.63;;
25988;SDS011;13778;48.236;9.894;2023-03-01T16:15:54;31.58;;;21.17;;
25988;SDS011;13778;48.236;9.894;2023-03-01T16:18:45;35.55;;;21.80;;
25988;SDS011;13778;48.236;9.894;2023-03-01T16:21:36;33.58;;;22.13;;
25988;SDS011;13778;48.236;9.894;2023-03-01T16:24:27;32.30;;;20.92;;
25988;SDS011;13778;48.236;9.894;2023-03-01T16:27:18;37.30;;;22.45;;
25988;SDS011;13778;48.236;9.894;2023-03-01T16:30:10;37.80;;;22.38;;
25988;SDS011;13778;48.236;9.894;2023-03-01T16:33:01;33.57;;;20.43;;
25988;SDS011;13778;48.236;9.894;2023-03-01T16:35:55;35.35;;;20.98;;
25988;SDS011;13778;48.236;9.894;2023-03-01T16:38:47;36.30;;;21.95;;
25988;SDS011;13778;48.236;9.894;2023-03-01T16:41:37;31.35;;;20.83;;
25988;SDS011;13778;48.236;9.894;2023-03-01T16:44:28;31.48;;;20.25;;
25988;SDS011;13778;48.236;9.894;2023-03-01T16:47:18;29.88;;;20.63;;
25988;SDS011;13778;48.236;9.894;2023-03-01T16:50:10;40.17;;;23.52;;
25988;SDS011;13778;48.236;9.894;2023-03-01T16:53:01;32.55;;;20.70;;
25988;SDS011;13778;48.236;9.894;2023-03-01T16:55:54;36.88;;;21.98;;
25988;SDS011;13778;48.236;9.894;2023-03-01T16:58:45;37.20;;;21.92;;
25988;SDS011;13778;48.236;9.894;2023-03-01T17:01:35;41.53;;;22.20;;
25988;SDS011;13778;48.236;9.894;2023-03-01T17:04:29;34.33;;;20.60;;
25988;SDS011;13778;48.236;9.894;2023-03-01T17:07:21;32.20;;;19.92;;
25988;SDS011;13778;48.236;9.894;2023-03-01T17:13:02;33.05;;;20.08;;
25988;SDS011;13778;48.236;9.894;2023-03-01T17:15:52;32.53;;;19.75;;
25988;SDS011;13778;48.236;9.894;2023-03-01T17:18:43;36.75;;;20.80;;
25988;SDS011;13778;48.236;9.894;2023-03-01T17:21:33;32.45;;;20.08;;
25988;SDS011;13778;48.236;9.894;2023-03-01T17:24:25;36.70;;;20.52;;
25988;SDS011;13778;48.236;9.894;2023-03-01T17:27:15;33.30;;;20.35;;
25988;SDS011;13778;48.236;9.894;2023-03-01T17:30:08;34.17;;;19.27;;
25988;SDS011;13778;48.236;9.894;2023-03-01T17:32:59;32.42;;;19.55;;
25988;SDS011;13778;48.236;9.894;2023-03-01T17:35:49;35.15;;;20.98;;
25988;SDS011;13778;48.236;9.894;2023-03-01T17:38:40;38.65;;;20.70;;
25988;SDS011;13778;48.236;9.894;2023-03-01T17:41:31;32.47;;;18.92;;
25988;SDS011;13778;48.236;9.894;2023-03-01T17:47:12;31.90;;;19.77;;
25988;SDS011;13778;48.236;9.894;2023-03-01T17:50:02;31.95;;;19.83;;
25988;SDS011;13778;48.236;9.894;2023-03-01T17:55:44;35.97;;;20.48;;
25988;SDS011;13778;48.236;9.894;2023-03-01T17:58:36;33.15;;;19.88;;